createdAt,value
2022-09-24T00:02:23.064Z,61.99
2022-09-24T00:04:49.909Z,62.06
2022-09-24T00:07:16.179Z,62.23
2022-09-24T00:09:42.440Z,62.24
2022-09-24T00:12:08.833Z,62.15
2022-09-24T00:14:35.805Z,62.05
2022-09-24T00:17:02.146Z,61.95
2022-09-24T00:19:28.387Z,61.94
2022-09-24T00:21:54.689Z,62.07
2022-09-24T00:24:20.949Z,62.17
2022-09-24T00:26:48.188Z,62.08
2022-09-24T00:29:14.405Z,62.04
2022-09-24T00:31:40.869Z,62.25
2022-09-24T00:34:07.325Z,62.04
2022-09-24T00:36:33.753Z,62.25
2022-09-24T00:39:00.177Z,62.04
2022-09-24T00:41:26.444Z,62.08
2022-09-24T00:43:52.994Z,62.06
2022-09-24T00:46:19.313Z,62.03
2022-09-24T00:48:45.773Z,61.96
2022-09-24T00:51:12.095Z,61.96
2022-09-24T00:53:38.368Z,62.14
2022-09-24T00:56:04.801Z,61.93
2022-09-24T00:58:31.085Z,62.00
2022-09-24T01:00:57.593Z,62.20
2022-09-24T01:03:24.189Z,62.22
2022-09-24T01:05:50.901Z,61.92
2022-09-24T01:08:17.271Z,62.17
2022-09-24T01:10:43.566Z,62.07
2022-09-24T01:13:11.505Z,62.15
2022-09-24T01:15:40.478Z,62.24
2022-09-24T01:18:06.776Z,62.09
2022-09-24T01:20:33.457Z,62.13
2022-09-24T01:22:59.724Z,62.25
2022-09-24T01:25:26.034Z,62.05
2022-09-24T01:27:52.412Z,61.92
2022-09-24T01:30:18.761Z,62.02
2022-09-24T01:32:45.057Z,62.11
2022-09-24T01:35:11.358Z,62.37
2022-09-24T01:37:37.783Z,62.51
2022-09-24T01:40:04.043Z,61.95
2022-09-24T01:42:30.317Z,62.36
2022-09-24T01:44:56.673Z,62.08
2022-09-24T01:47:22.946Z,61.86
2022-09-24T01:49:49.210Z,62.01
2022-09-24T01:52:15.588Z,62.24
2022-09-24T01:54:42.049Z,61.96
2022-09-24T01:57:08.335Z,62.17
2022-09-24T01:59:34.650Z,61.94
2022-09-24T02:02:01.012Z,62.29
2022-09-24T02:04:27.443Z,62.08
2022-09-24T02:06:53.711Z,61.94
2022-09-24T02:09:20.106Z,62.25
2022-09-24T02:11:46.442Z,61.94
2022-09-24T02:14:12.914Z,61.98
2022-09-24T02:16:39.472Z,62.34
2022-09-24T02:19:05.898Z,62.21
2022-09-24T02:21:32.938Z,62.29
2022-09-24T02:23:59.212Z,62.15
2022-09-24T02:26:25.593Z,62.20
2022-09-24T02:28:51.858Z,61.81
2022-09-24T02:31:18.282Z,62.19
2022-09-24T02:33:44.877Z,61.88
2022-09-24T02:36:11.152Z,61.94
2022-09-24T02:38:37.412Z,62.01
2022-09-24T02:41:03.750Z,61.91
2022-09-24T02:43:30.098Z,61.92
2022-09-24T02:45:56.458Z,61.96
2022-09-24T02:48:22.840Z,62.01
2022-09-24T02:50:49.349Z,62.27
2022-09-24T02:53:15.727Z,61.86
2022-09-24T02:55:42.072Z,61.89
2022-09-24T02:58:08.470Z,61.89
2022-09-24T03:00:34.922Z,62.17
2022-09-24T03:03:01.365Z,61.87
2022-09-24T03:05:27.734Z,62.12
2022-09-24T03:07:54.119Z,61.88
2022-09-24T03:10:20.511Z,61.84
2022-09-24T03:12:46.854Z,61.96
2022-09-24T03:15:13.130Z,62.33
2022-09-24T03:17:39.397Z,61.75
2022-09-24T03:20:05.690Z,61.86
2022-09-24T03:22:31.978Z,62.22
2022-09-24T03:24:58.254Z,62.08
2022-09-24T03:27:24.541Z,62.09
2022-09-24T03:29:50.962Z,61.67
2022-09-24T03:32:17.403Z,62.04
2022-09-24T03:34:43.657Z,61.80
2022-09-24T03:37:09.916Z,61.78
2022-09-24T03:39:36.309Z,61.84
2022-09-24T03:42:02.880Z,61.70
2022-09-24T03:44:29.302Z,62.03
2022-09-24T03:46:55.643Z,61.84
2022-09-24T03:49:22.092Z,61.90
2022-09-24T03:51:48.550Z,61.69
2022-09-24T03:54:14.827Z,61.90
2022-09-24T03:56:42.081Z,61.80
2022-09-24T03:59:08.403Z,61.69
2022-09-24T04:01:34.749Z,61.94
2022-09-24T04:04:01.112Z,61.75
2022-09-24T04:06:27.504Z,61.90
2022-09-24T04:08:53.799Z,61.91
2022-09-24T04:11:20.089Z,62.03
2022-09-24T04:13:46.722Z,61.75
2022-09-24T04:16:19.234Z,61.98
2022-09-24T04:18:45.852Z,61.92
2022-09-24T04:21:12.444Z,61.78
2022-09-24T04:23:38.726Z,62.05
2022-09-24T04:26:05.062Z,61.75
2022-09-24T04:28:31.445Z,61.79
2022-09-24T04:30:58.022Z,61.76
2022-09-24T04:33:24.438Z,61.76
2022-09-24T04:35:50.709Z,61.61
2022-09-24T04:38:17.025Z,61.73
2022-09-24T04:40:44.560Z,61.87
2022-09-24T04:43:11.532Z,61.99
2022-09-24T04:45:37.815Z,61.65
2022-09-24T04:48:04.068Z,61.59
2022-09-24T04:50:30.340Z,61.72
2022-09-24T04:52:56.678Z,61.77
2022-09-24T04:55:24.569Z,62.06
2022-09-24T04:57:50.847Z,61.94
2022-09-24T05:00:18.403Z,61.68
2022-09-24T05:02:44.848Z,61.88
2022-09-24T05:05:11.271Z,61.72
2022-09-24T05:07:37.508Z,61.71
2022-09-24T05:10:03.765Z,61.63
2022-09-24T05:12:30.180Z,61.97
2022-09-24T05:14:56.460Z,61.85
2022-09-24T05:17:22.718Z,61.69
2022-09-24T05:19:48.984Z,61.82
2022-09-24T05:22:15.397Z,61.68
2022-09-24T05:24:41.719Z,62.07
2022-09-24T05:27:07.987Z,61.75
2022-09-24T05:29:34.334Z,61.54
2022-09-24T05:32:00.785Z,61.64
2022-09-24T05:34:27.388Z,61.49
2022-09-24T05:36:53.734Z,61.43
2022-09-24T05:39:20.257Z,61.59
2022-09-24T05:41:46.500Z,61.50
2022-09-24T05:44:12.807Z,61.95
2022-09-24T05:46:39.121Z,61.70
2022-09-24T05:49:05.629Z,61.40
2022-09-24T05:51:31.939Z,61.67
2022-09-24T05:53:58.293Z,61.49
2022-09-24T05:56:24.537Z,62.00
2022-09-24T05:58:50.969Z,61.56
2022-09-24T06:01:17.436Z,61.94
2022-09-24T06:03:43.869Z,61.64
2022-09-24T06:06:10.422Z,61.45
2022-09-24T06:08:36.850Z,61.75
2022-09-24T06:11:03.132Z,61.69
2022-09-24T06:13:29.478Z,61.60
2022-09-24T06:15:55.763Z,61.55
2022-09-24T06:18:22.050Z,61.67
2022-09-24T06:20:48.329Z,61.72
2022-09-24T06:23:14.682Z,62.06
2022-09-24T06:25:40.965Z,61.88
2022-09-24T06:28:07.202Z,61.98
2022-09-24T06:30:33.714Z,61.84
2022-09-24T06:33:00.016Z,61.77
2022-09-24T06:35:26.486Z,62.07
2022-09-24T06:37:52.845Z,61.68
2022-09-24T06:40:19.333Z,61.76
2022-09-24T06:42:45.737Z,61.90
2022-09-24T06:45:12.014Z,61.97
2022-09-24T06:47:38.333Z,61.97
2022-09-24T06:50:04.626Z,61.91
2022-09-24T06:52:31.170Z,62.18
2022-09-24T06:54:57.659Z,61.86
2022-09-24T06:57:28.673Z,61.87
2022-09-24T06:59:55.379Z,61.79
2022-09-24T07:02:21.687Z,61.80
2022-09-24T07:04:48.098Z,61.92
2022-09-24T07:07:14.351Z,61.93
2022-09-24T07:09:40.703Z,61.70
2022-09-24T07:12:07.007Z,61.80
2022-09-24T07:14:33.269Z,61.89
2022-09-24T07:17:00.182Z,62.05
2022-09-24T07:19:26.665Z,61.96
2022-09-24T07:21:53.027Z,61.96
2022-09-24T07:24:19.377Z,62.08
2022-09-24T07:26:45.684Z,61.85
2022-09-24T07:29:12.144Z,62.10
2022-09-24T07:31:39.175Z,62.17
2022-09-24T07:34:05.656Z,61.92
2022-09-24T07:36:32.014Z,61.98
2022-09-24T07:38:58.281Z,61.97
2022-09-24T07:41:24.570Z,62.31
2022-09-24T07:43:50.866Z,62.01
2022-09-24T07:46:17.433Z,62.25
2022-09-24T07:48:43.779Z,62.10
2022-09-24T07:51:10.053Z,61.96
2022-09-24T07:53:36.351Z,62.15
2022-09-24T07:56:02.678Z,62.24
2022-09-24T07:58:29.187Z,62.03
2022-09-24T08:00:55.784Z,61.97
2022-09-24T08:03:22.300Z,61.96
2022-09-24T08:05:48.621Z,62.04
2022-09-24T08:08:15.061Z,62.10
2022-09-24T08:10:41.481Z,62.13
2022-09-24T08:13:07.742Z,61.92
2022-09-24T08:15:34.050Z,62.02
2022-09-24T08:18:00.324Z,61.84
2022-09-24T08:20:26.672Z,61.97
2022-09-24T08:22:52.979Z,62.32
2022-09-24T08:25:19.305Z,62.21
2022-09-24T08:27:46.279Z,62.04
2022-09-24T08:30:12.522Z,62.09
2022-09-24T08:32:38.818Z,62.23
2022-09-24T08:35:05.122Z,62.43
2022-09-24T08:37:31.593Z,62.18
2022-09-24T08:39:57.847Z,62.38
2022-09-24T08:42:24.126Z,62.19
2022-09-24T08:44:50.421Z,62.10
2022-09-24T08:47:16.988Z,62.49
2022-09-24T08:49:43.301Z,62.05
2022-09-24T08:52:09.594Z,62.26
2022-09-24T08:54:35.883Z,62.28
2022-09-24T08:57:02.479Z,61.74
2022-09-24T08:59:28.898Z,61.91
2022-09-24T09:01:56.183Z,61.70
2022-09-24T09:04:22.482Z,61.85
2022-09-24T09:06:48.789Z,61.47
2022-09-24T09:09:15.100Z,61.86
2022-09-24T09:11:41.719Z,61.79
2022-09-24T09:14:08.209Z,61.82
2022-09-24T09:16:34.639Z,61.86
2022-09-24T09:19:01.661Z,62.02
2022-09-24T09:21:29.050Z,62.26
2022-09-24T09:23:55.812Z,62.41
2022-09-24T09:26:22.151Z,62.58
2022-09-24T09:28:48.421Z,62.58
2022-09-24T09:31:14.820Z,62.81
2022-09-24T09:33:41.281Z,62.57
2022-09-24T09:36:07.777Z,62.78
2022-09-24T09:38:34.291Z,62.86
2022-09-24T09:41:00.714Z,62.81
2022-09-24T09:43:27.102Z,62.85
2022-09-24T09:45:53.485Z,62.91
2022-09-24T09:48:19.894Z,62.84
2022-09-24T09:50:46.261Z,63.18
2022-09-24T09:53:12.734Z,62.60
2022-09-24T09:55:40.362Z,62.61
2022-09-24T09:58:06.788Z,63.12
2022-09-24T10:00:33.184Z,63.17
2022-09-24T10:02:59.640Z,62.78
2022-09-24T10:05:27.465Z,63.20
2022-09-24T10:07:54.067Z,62.93
2022-09-24T10:10:20.303Z,62.88
2022-09-24T10:12:46.858Z,63.12
2022-09-24T10:15:13.248Z,63.04
2022-09-24T10:17:39.694Z,63.23
2022-09-24T10:20:05.950Z,62.54
2022-09-24T10:22:32.385Z,62.39
2022-09-24T10:24:58.790Z,62.08
2022-09-24T10:27:25.494Z,62.16
2022-09-24T10:29:52.126Z,62.06
2022-09-24T10:32:18.487Z,62.13
2022-09-24T10:34:44.915Z,62.02
2022-09-24T10:37:11.340Z,62.07
2022-09-24T10:39:37.598Z,61.84
2022-09-24T10:42:04.295Z,61.97
2022-09-24T10:44:30.615Z,61.98
2022-09-24T10:46:57.206Z,61.80
2022-09-24T10:49:23.647Z,61.83
2022-09-24T10:51:49.985Z,61.83
2022-09-24T10:54:16.245Z,61.59
2022-09-24T10:56:46.445Z,61.14
2022-09-24T10:59:13.161Z,61.21
2022-09-24T11:01:39.530Z,61.11
2022-09-24T11:04:05.958Z,60.79
2022-09-24T11:06:32.222Z,61.10
2022-09-24T11:08:58.794Z,60.40
2022-09-24T11:11:25.131Z,60.62
2022-09-24T11:13:51.854Z,60.48
2022-09-24T11:16:19.345Z,60.25
2022-09-24T11:18:45.729Z,60.27
2022-09-24T11:21:12.185Z,60.46
2022-09-24T11:23:38.493Z,60.35
2022-09-24T11:26:04.842Z,59.91
2022-09-24T11:28:31.149Z,59.75
2022-09-24T11:30:57.727Z,59.67
2022-09-24T11:33:24.166Z,59.84
2022-09-24T11:35:50.453Z,59.22
2022-09-24T11:38:16.738Z,59.25
2022-09-24T11:40:43.500Z,59.25
2022-09-24T11:43:10.017Z,59.48
2022-09-24T11:45:36.440Z,59.98
2022-09-24T11:48:02.732Z,60.01
2022-09-24T11:50:29.176Z,59.77
2022-09-24T11:52:55.635Z,59.89
2022-09-24T11:55:21.956Z,60.33
2022-09-24T11:57:48.281Z,60.57
2022-09-24T12:00:14.576Z,60.28
2022-09-24T12:02:41.007Z,60.58
2022-09-24T12:05:07.285Z,60.18
2022-09-24T12:07:33.796Z,60.23
2022-09-24T12:10:00.134Z,60.90
2022-09-24T12:12:26.814Z,60.59
2022-09-24T12:14:53.122Z,60.88
2022-09-24T12:17:19.352Z,60.93
2022-09-24T12:19:45.655Z,60.72
2022-09-24T12:22:12.004Z,61.00
2022-09-24T12:24:38.309Z,61.03
2022-09-24T12:27:04.790Z,60.82
2022-09-24T12:29:31.068Z,60.94
2022-09-24T12:31:57.872Z,61.16
2022-09-24T12:36:59.649Z,60.93
2022-09-24T12:39:26.140Z,60.52
2022-09-24T12:41:52.454Z,60.67
2022-09-24T12:44:22.261Z,59.50
2022-09-24T12:46:49.033Z,59.46
2022-09-24T12:49:15.605Z,59.09
2022-09-24T12:51:42.480Z,59.34
2022-09-24T12:54:08.837Z,59.27
2022-09-24T12:56:35.199Z,59.33
2022-09-24T12:59:01.472Z,59.63
2022-09-24T13:01:27.870Z,59.67
2022-09-24T13:03:54.249Z,59.04
2022-09-24T13:06:20.610Z,59.18
2022-09-24T13:08:47.055Z,58.73
2022-09-24T13:11:13.332Z,58.82
2022-09-24T13:13:39.779Z,58.81
2022-09-24T13:16:06.219Z,59.07
2022-09-24T13:18:32.614Z,59.07
2022-09-24T13:20:58.922Z,59.01
2022-09-24T13:23:25.197Z,59.25
2022-09-24T13:25:51.471Z,59.03
2022-09-24T13:28:17.730Z,59.07
2022-09-24T13:30:44.359Z,59.51
2022-09-24T13:33:10.717Z,59.67
2022-09-24T13:35:37.075Z,59.57
2022-09-24T13:38:03.412Z,60.11
2022-09-24T13:40:30.901Z,59.94
2022-09-24T13:42:57.596Z,59.84
2022-09-24T13:45:23.982Z,60.01
2022-09-24T13:47:50.265Z,60.07
2022-09-24T13:50:16.608Z,59.75
2022-09-24T13:52:43.003Z,60.21
2022-09-24T13:55:09.276Z,60.61
2022-09-24T13:57:35.638Z,60.42
2022-09-24T14:00:02.387Z,60.78
2022-09-24T14:02:28.760Z,60.93
2022-09-24T14:04:55.467Z,61.06
2022-09-24T14:07:21.862Z,61.18
2022-09-24T14:09:48.822Z,60.89
2022-09-24T14:12:15.390Z,61.11
2022-09-24T14:14:41.922Z,61.36
2022-09-24T14:17:08.381Z,61.46
2022-09-24T14:19:34.752Z,61.40
2022-09-24T14:22:02.473Z,61.30
2022-09-24T14:24:28.897Z,61.52
2022-09-24T14:26:55.336Z,61.33
2022-09-24T14:29:21.624Z,61.58
2022-09-24T14:31:48.027Z,61.87
2022-09-24T14:34:14.526Z,62.12
2022-09-24T14:36:41.057Z,61.99
2022-09-24T14:39:07.486Z,61.65
2022-09-24T14:41:33.967Z,62.06
2022-09-24T14:44:00.277Z,61.86
2022-09-24T14:46:26.740Z,61.29
2022-09-24T14:48:53.449Z,61.58
2022-09-24T14:51:19.948Z,61.73
2022-09-24T14:53:46.288Z,61.77
2022-09-24T14:56:12.773Z,61.71
2022-09-24T14:58:39.032Z,61.43
2022-09-24T15:01:05.354Z,61.57
2022-09-24T15:03:31.819Z,61.49
2022-09-24T15:05:58.359Z,62.23
2022-09-24T15:08:24.762Z,61.79
2022-09-24T15:10:51.106Z,62.09
2022-09-24T15:13:17.749Z,62.07
2022-09-24T15:15:44.717Z,61.79
2022-09-24T15:18:12.181Z,61.79
2022-09-24T15:20:38.490Z,62.30
2022-09-24T15:23:04.852Z,62.12
2022-09-24T15:25:32.357Z,62.07
2022-09-24T15:27:58.693Z,62.11
2022-09-24T15:30:24.972Z,62.32
2022-09-24T15:32:51.405Z,61.95
2022-09-24T15:35:17.709Z,62.07
2022-09-24T15:37:44.054Z,61.65
2022-09-24T15:40:10.731Z,61.91
2022-09-24T15:42:37.242Z,61.88
2022-09-24T15:45:03.550Z,61.88
2022-09-24T15:47:29.805Z,61.98
2022-09-24T15:49:56.142Z,61.80
2022-09-24T15:52:22.559Z,61.89
2022-09-24T15:54:49.181Z,61.50
2022-09-24T15:57:15.549Z,61.83
2022-09-24T15:59:42.134Z,61.53
2022-09-24T16:02:08.652Z,61.80
2022-09-24T16:04:35.086Z,61.99
2022-09-24T16:07:01.412Z,62.08
2022-09-24T16:09:27.725Z,61.39
2022-09-24T16:11:53.970Z,61.47
2022-09-24T16:14:20.406Z,61.46
2022-09-24T16:16:46.711Z,61.45
2022-09-24T16:19:13.069Z,61.56
2022-09-24T16:21:39.647Z,61.64
2022-09-24T16:24:05.926Z,61.58
2022-09-24T16:26:33.328Z,61.62
2022-09-24T16:28:59.618Z,61.47
2022-09-24T16:31:25.987Z,61.33
2022-09-24T16:33:52.558Z,61.65
2022-09-24T16:36:19.000Z,61.59
2022-09-24T16:38:45.789Z,61.29
2022-09-24T16:41:12.152Z,61.65
2022-09-24T16:43:38.632Z,61.62
2022-09-24T16:46:05.199Z,61.53
2022-09-24T16:48:31.668Z,61.44
2022-09-24T16:50:57.939Z,61.67
2022-09-24T16:53:24.381Z,61.47
2022-09-24T16:55:51.687Z,61.15
2022-09-24T16:58:17.961Z,61.53
2022-09-24T17:00:44.196Z,61.05
2022-09-24T17:03:10.616Z,60.93
2022-09-24T17:05:39.905Z,60.99
2022-09-24T17:08:06.221Z,61.35
2022-09-24T17:10:32.479Z,61.47
2022-09-24T17:12:58.787Z,61.46
2022-09-24T17:15:25.053Z,61.15
2022-09-24T17:17:51.416Z,61.25
2022-09-24T17:20:17.734Z,61.15
2022-09-24T17:22:44.326Z,61.58
2022-09-24T17:25:10.773Z,61.42
2022-09-24T17:27:37.190Z,61.47
2022-09-24T17:30:03.680Z,61.29
2022-09-24T17:32:29.998Z,61.49
2022-09-24T17:34:56.308Z,61.60
2022-09-24T17:37:22.637Z,61.25
2022-09-24T17:39:48.996Z,61.57
2022-09-24T17:42:15.455Z,61.49
2022-09-24T17:44:42.010Z,60.97
2022-09-24T17:47:08.694Z,61.04
2022-09-24T17:49:35.059Z,61.31
2022-09-24T17:52:01.375Z,61.21
2022-09-24T17:54:27.895Z,60.99
2022-09-24T17:56:54.202Z,61.37
2022-09-24T17:59:25.579Z,61.43
2022-09-24T18:01:52.928Z,61.19
2022-09-24T18:04:20.588Z,60.80
2022-09-24T18:06:47.257Z,60.73
2022-09-24T18:09:13.550Z,60.90
2022-09-24T18:11:39.808Z,61.18
2022-09-24T18:14:06.433Z,61.21
2022-09-24T18:16:32.715Z,61.18
2022-09-24T18:18:59.138Z,60.72
2022-09-24T18:21:25.426Z,61.28
2022-09-24T18:23:51.719Z,61.35
2022-09-24T18:26:18.200Z,61.03
2022-09-24T18:28:44.509Z,61.26
2022-09-24T18:31:11.020Z,61.11
2022-09-24T18:33:37.469Z,61.36
2022-09-24T18:36:03.855Z,61.31
2022-09-24T18:38:30.290Z,61.24
2022-09-24T18:41:01.857Z,61.27
2022-09-24T18:43:28.144Z,61.21
2022-09-24T18:45:54.569Z,61.00
2022-09-24T18:48:20.973Z,61.30
2022-09-24T18:50:47.234Z,61.50
2022-09-24T18:53:13.506Z,61.03
2022-09-24T18:55:39.846Z,60.96
2022-09-24T18:58:06.286Z,61.41
2022-09-24T19:00:33.094Z,61.50
2022-09-24T19:02:59.470Z,61.21
2022-09-24T19:05:25.963Z,61.29
2022-09-24T19:07:52.716Z,60.89
2022-09-24T19:10:19.356Z,61.09
2022-09-24T19:12:45.621Z,61.09
2022-09-24T19:15:11.877Z,61.46
2022-09-24T19:17:38.186Z,61.11
2022-09-24T19:20:04.668Z,61.52
2022-09-24T19:22:30.999Z,61.48
2022-09-24T19:24:57.515Z,61.19
2022-09-24T19:27:23.816Z,60.85
2022-09-24T19:29:50.102Z,61.14
2022-09-24T19:32:16.689Z,60.90
2022-09-24T19:34:42.937Z,60.95
2022-09-24T19:37:09.383Z,61.22
2022-09-24T19:39:35.706Z,61.00
2022-09-24T19:42:01.976Z,60.93
2022-09-24T19:44:28.240Z,61.12
2022-09-24T19:46:54.572Z,61.19
2022-09-24T19:49:20.892Z,61.07
2022-09-24T19:51:47.216Z,61.09
2022-09-24T19:54:13.568Z,60.79
2022-09-24T19:56:40.135Z,61.37
2022-09-24T19:59:06.568Z,61.17
2022-09-24T20:01:33.220Z,61.10
2022-09-24T20:03:59.642Z,60.92
2022-09-24T20:06:26.162Z,60.81
2022-09-24T20:08:52.671Z,61.31
2022-09-24T20:11:19.027Z,61.45
2022-09-24T20:13:45.303Z,61.59
2022-09-24T20:16:11.755Z,61.50
2022-09-24T20:18:38.090Z,61.44
2022-09-24T20:21:04.429Z,61.21
2022-09-24T20:23:30.690Z,61.48
2022-09-24T20:25:57.058Z,61.77
2022-09-24T20:28:23.343Z,61.79
2022-09-24T20:30:49.717Z,61.74
2022-09-24T20:33:16.239Z,61.45
2022-09-24T20:35:42.852Z,61.42
2022-09-24T20:38:09.252Z,61.76
2022-09-24T20:40:35.514Z,61.60
2022-09-24T20:43:03.025Z,61.47
2022-09-24T20:45:30.731Z,61.56
2022-09-24T20:47:57.066Z,61.50
2022-09-24T20:50:23.744Z,61.68
2022-09-24T20:52:50.125Z,61.72
2022-09-24T20:55:16.432Z,61.82
2022-09-24T20:57:42.844Z,61.79
2022-09-24T21:00:09.340Z,66.44
2022-09-24T21:02:39.240Z,61.72
2022-09-24T21:05:07.722Z,61.42
2022-09-24T21:07:34.091Z,61.52
2022-09-24T21:10:00.577Z,61.39
2022-09-24T21:12:26.892Z,60.94
2022-09-24T21:14:53.136Z,61.08
2022-09-24T21:17:19.477Z,61.29
2022-09-24T21:19:49.002Z,60.99
2022-09-24T21:22:15.358Z,61.42
2022-09-24T21:24:41.914Z,61.15
2022-09-24T21:27:08.342Z,60.91
2022-09-24T21:29:34.613Z,61.05
2022-09-24T21:32:01.057Z,60.71
2022-09-24T21:34:27.325Z,60.90
2022-09-24T21:36:53.626Z,61.04
2022-09-24T21:39:20.130Z,60.96
2022-09-24T21:41:46.518Z,60.91
2022-09-24T21:44:13.148Z,60.68
2022-09-24T21:46:39.615Z,60.90
2022-09-24T21:49:06.621Z,60.94
2022-09-24T21:51:33.202Z,60.83
2022-09-24T21:53:59.597Z,61.01
2022-09-24T21:56:26.150Z,61.03
2022-09-24T21:58:53.414Z,60.91
2022-09-24T22:01:19.964Z,60.34
2022-09-24T22:03:46.342Z,60.73
2022-09-24T22:06:12.688Z,60.57
2022-09-24T22:08:39.008Z,60.81
2022-09-24T22:11:05.468Z,60.59
2022-09-24T22:13:31.838Z,60.65
2022-09-24T22:15:58.102Z,61.10
2022-09-24T22:18:24.504Z,60.86
2022-09-24T22:20:50.907Z,60.92
2022-09-24T22:23:18.564Z,60.79
2022-09-24T22:25:44.974Z,60.81
2022-09-24T22:28:11.295Z,60.92
2022-09-24T22:30:37.851Z,61.30
2022-09-24T22:33:04.401Z,60.75
2022-09-24T22:35:30.677Z,60.60
2022-09-24T22:37:57.056Z,60.80
2022-09-24T22:40:23.608Z,60.51
2022-09-24T22:42:50.929Z,60.95
2022-09-24T22:45:17.230Z,60.60
2022-09-24T22:47:43.706Z,60.89
2022-09-24T22:50:10.030Z,60.87
2022-09-24T22:52:36.805Z,61.00
2022-09-24T22:55:03.132Z,60.78
2022-09-24T22:57:30.820Z,60.74
2022-09-24T22:59:57.122Z,60.67
2022-09-24T23:02:23.528Z,60.81
2022-09-24T23:04:50.190Z,60.57
2022-09-24T23:07:16.480Z,60.54
2022-09-24T23:09:42.808Z,60.71
2022-09-24T23:12:09.153Z,60.51
2022-09-24T23:14:35.482Z,60.37
2022-09-24T23:17:01.802Z,60.34
2022-09-24T23:19:28.347Z,60.26
2022-09-24T23:21:54.758Z,60.57
2022-09-24T23:24:21.137Z,60.31
2022-09-24T23:26:47.648Z,60.01
2022-09-24T23:29:14.535Z,60.69
2022-09-24T23:31:40.878Z,60.53
2022-09-24T23:34:07.170Z,60.52
2022-09-24T23:36:34.017Z,60.45
2022-09-24T23:39:00.330Z,60.41
2022-09-24T23:41:26.636Z,60.20
2022-09-24T23:43:52.897Z,60.23
2022-09-24T23:46:19.347Z,60.36
2022-09-24T23:48:46.430Z,60.32
2022-09-24T23:51:12.904Z,60.54
2022-09-24T23:53:39.327Z,60.43
2022-09-24T23:56:05.734Z,60.16
2022-09-24T23:58:32.284Z,60.30
